Terminal Aerodrome Forecast
Issued by NWS

Home | Current Version | Previous Version | Graphics & Text | Print | Product List | Glossary On
Versions: 1 2 3 4 5 6 7 8 9 10 11 12 13 14 15 16 17
196
FTUS43 KUNR 140520
TAFGCC
TAF
KGCC 140520Z 1406/1506 34011KT P6SM BKN080
     FM141500 33018G30KT P6SM BKN020
     FM142100 33015KT P6SM SCT025
     FM150300 22010KT P6SM SKC=

USA.gov is the U.S. government's official web portal to all federal, state and local government web resources and services.